createdAt,value
2019-04-21T14:38:29.821Z,10.7
2019-04-21T14:39:42.000Z,11.6
2019-04-21T14:40:54.193Z,11
2019-04-21T14:42:06.409Z,13.1
2019-04-21T14:43:18.605Z,12
2019-04-21T14:44:30.809Z,12.5
2019-04-21T14:45:43.004Z,12.3
2019-04-21T14:46:55.019Z,12.1
2019-04-21T14:48:07.394Z,12.5
2019-04-21T14:49:19.590Z,11.2
2019-04-21T14:50:31.807Z,10.5
2019-04-21T14:51:43.991Z,12.7
2019-04-21T14:52:56.198Z,11.4
2019-04-21T14:54:08.390Z,12.8
2019-04-21T14:55:20.629Z,12.3
2019-04-21T14:56:32.791Z,10.6
2019-04-21T14:57:44.097Z,10.6
2019-04-21T14:58:57.178Z,11.1
2019-04-21T15:00:09.373Z,12.3
2019-04-21T15:01:21.577Z,11.7
2019-04-21T15:02:33.780Z,11.5
2019-04-21T15:03:45.972Z,13.3
2019-04-21T15:04:58.183Z,11.7
2019-04-21T15:06:10.380Z,11.6
2019-04-21T15:07:22.579Z,10.4
2019-04-21T15:08:34.783Z,11.7
2019-04-21T15:09:46.975Z,11.7
2019-04-21T15:10:59.176Z,13
2019-04-21T15:12:11.370Z,13.6
2019-04-21T15:13:23.056Z,13.5
2019-04-21T15:14:35.768Z,12.5
2019-04-21T15:15:48.000Z,13.1
2019-04-21T15:17:00.162Z,11.7
2019-04-21T15:18:12.365Z,11.7
2019-04-21T15:19:24.568Z,11.9
2019-04-21T15:20:36.799Z,13.5
2019-04-21T15:21:48.973Z,14.2
2019-04-21T15:23:01.162Z,12.9
2019-04-21T15:24:13.367Z,14
2019-04-21T15:26:38.008Z,12.4
2019-04-21T15:27:49.955Z,13.2
2019-04-21T15:29:02.156Z,13.4
2019-04-21T15:30:14.356Z,14.7
2019-04-21T15:31:26.056Z,14.8
2019-04-21T15:32:38.754Z,14.5
2019-04-21T15:33:50.096Z,13.1
2019-04-21T15:35:03.015Z,14.2
2019-04-21T15:36:15.366Z,14.8
2019-04-21T15:37:27.554Z,13.4
2019-04-21T15:38:39.740Z,15.6
2019-04-21T15:39:51.940Z,12.7
2019-04-21T15:41:04.144Z,13.6
2019-04-21T15:42:16.357Z,13.2
2019-04-21T15:43:28.546Z,12.4
2019-04-21T15:44:40.742Z,12.1
2019-04-21T15:45:52.940Z,13.9
2019-04-21T15:47:05.147Z,13
2019-04-21T15:48:17.344Z,13
2019-04-21T15:49:29.530Z,15.1
2019-04-21T15:50:41.738Z,15.3
2019-04-21T15:51:53.930Z,12.7
2019-04-21T15:53:06.138Z,14.2
2019-04-21T15:54:18.033Z,13.6
2019-04-21T15:55:30.536Z,14.2
2019-04-21T15:56:42.743Z,13.5
2019-04-21T15:57:54.991Z,14.3
2019-04-21T15:59:07.134Z,13.8
2019-04-21T16:00:19.331Z,13.3
2019-04-21T16:01:31.766Z,12.9
2019-04-21T16:02:43.072Z,13.1
2019-04-21T16:03:55.923Z,14.2
2019-04-21T16:05:08.012Z,14.9
2019-04-21T16:06:20.326Z,14.5
2019-04-21T16:07:32.555Z,14.4
2019-04-21T16:08:44.727Z,14.8
2019-04-21T16:09:56.924Z,14.9
2019-04-21T16:11:09.128Z,14.3
2019-04-21T16:12:21.315Z,13.7
2019-04-21T16:13:33.514Z,13.5
2019-04-21T16:14:45.071Z,13.9
2019-04-21T16:15:57.914Z,13.8
2019-04-21T16:17:10.114Z,15
2019-04-21T16:18:22.314Z,13.9
2019-04-21T16:19:34.517Z,17.2
2019-04-21T16:21:58.903Z,15.7
2019-04-21T16:23:11.023Z,14.4
2019-04-21T16:24:23.304Z,14.5
2019-04-21T16:25:35.503Z,14.1
2019-04-21T16:26:47.710Z,13.4
2019-04-21T16:27:59.907Z,13.2
2019-04-21T16:29:12.106Z,14.5
2019-04-21T16:30:24.299Z,12.8
2019-04-21T16:31:36.514Z,13.8
2019-04-21T16:32:48.698Z,11.8
2019-04-21T16:34:00.893Z,13.8
2019-04-21T16:35:13.095Z,12.5
2019-04-21T16:36:25.308Z,12.9
2019-04-21T16:37:37.492Z,12.4
2019-04-21T16:38:49.693Z,12.2
2019-04-21T16:40:01.089Z,10.9
2019-04-21T16:41:14.009Z,10.9
2019-04-21T16:42:26.283Z,12.7
2019-04-21T16:43:38.478Z,13.3
2019-04-21T16:44:50.690Z,10.9
2019-04-21T16:46:02.885Z,11.5
2019-04-21T16:47:15.080Z,11
2019-04-21T16:48:27.283Z,12.1
2019-04-21T16:49:39.480Z,10.6
2019-04-21T16:50:51.688Z,12.2
2019-04-21T16:52:03.882Z,9.7
2019-04-21T16:53:16.072Z,11.5
2019-04-21T16:54:28.028Z,9.1
2019-04-21T16:55:40.047Z,12.4
2019-04-21T16:56:52.067Z,10.2
2019-04-21T16:58:04.872Z,10.1
2019-04-21T16:59:17.073Z,11.2
2019-04-21T17:00:29.273Z,12.3
2019-04-21T17:01:41.465Z,10.3
2019-04-21T17:02:53.663Z,10
2019-04-21T17:04:05.086Z,9.8
2019-04-21T17:05:18.072Z,10.3
2019-04-21T17:06:30.260Z,10.6
2019-04-21T17:07:42.664Z,9.9
2019-04-21T17:08:54.659Z,10.1
2019-04-21T17:10:06.861Z,10.3
2019-04-21T17:11:19.051Z,11
2019-04-21T17:12:31.253Z,10
2019-04-21T17:13:43.483Z,10.1
2019-04-21T17:14:55.659Z,9.2
2019-04-21T17:16:07.847Z,9.1
2019-04-21T17:17:20.053Z,7.8
2019-04-21T17:18:32.260Z,8.4
2019-04-21T17:19:44.046Z,8
2019-04-21T17:20:56.642Z,7.3
2019-04-21T17:22:08.846Z,6.4
2019-04-21T17:23:21.004Z,10
2019-04-21T17:24:33.357Z,7.4
2019-04-21T17:25:45.453Z,7.5
2019-04-21T17:26:57.643Z,6.5
2019-04-21T17:28:09.842Z,7
2019-04-21T17:29:22.042Z,7.9
2019-04-21T17:30:34.249Z,6.5
2019-04-21T17:31:46.044Z,7.4
2019-04-21T17:32:58.640Z,9.4
2019-04-21T17:34:10.846Z,8.5
2019-04-21T17:35:23.035Z,8.7
2019-04-21T17:36:35.236Z,8.3
2019-04-21T17:37:47.431Z,8.2
2019-04-21T17:38:59.636Z,9.3
2019-04-21T17:40:11.841Z,8.6
2019-04-21T17:41:24.032Z,7.4
2019-04-21T17:42:36.239Z,8.6
2019-04-21T17:43:48.433Z,8.6
2019-04-21T17:45:00.627Z,8.5
2019-04-21T17:46:12.832Z,8
2019-04-21T17:47:25.034Z,8.8
2019-04-21T17:48:37.231Z,8.9
2019-04-21T17:49:49.655Z,8.3
2019-04-21T17:51:01.630Z,8.3
2019-04-21T17:52:13.863Z,8.7
2019-04-21T17:53:26.042Z,11.4
2019-04-21T17:54:38.231Z,8.6
2019-04-21T17:55:50.429Z,9.2
2019-04-21T17:57:02.643Z,10.1
2019-04-21T17:58:14.816Z,9.7
2019-04-21T17:59:27.028Z,9.5
2019-04-21T18:00:39.221Z,9.1
2019-04-21T18:01:51.468Z,9
2019-04-21T18:03:03.062Z,10
2019-04-21T18:04:15.822Z,9.1
2019-04-21T18:05:28.097Z,8.9
2019-04-21T18:06:40.227Z,8.4
2019-04-21T18:07:52.416Z,7.8
2019-04-21T18:09:04.614Z,8.3
2019-04-21T18:10:16.806Z,7
2019-04-21T18:11:29.012Z,6.6
2019-04-21T18:12:41.697Z,6.9
2019-04-21T18:13:53.411Z,8.2
2019-04-21T18:15:05.606Z,6.3
2019-04-21T18:16:17.810Z,7.3
2019-04-21T18:17:30.015Z,6.8
2019-04-21T18:18:42.210Z,6.3
2019-04-21T18:19:54.412Z,6.3
2019-04-21T18:21:06.061Z,6.5
2019-04-21T18:22:18.811Z,6.4
2019-04-21T18:23:31.000Z,7.2
2019-04-21T18:24:43.197Z,7.5
2019-04-21T18:25:55.400Z,6.1
2019-04-21T18:27:07.608Z,6.6
2019-04-21T18:28:19.800Z,8.4
2019-04-21T18:29:32.003Z,7.5
2019-04-21T18:30:44.215Z,7.2
2019-04-21T18:31:56.406Z,7.1
2019-04-21T18:33:08.603Z,6.7
2019-04-21T18:34:20.824Z,7.2
2019-04-21T18:35:33.002Z,7.1
2019-04-21T18:36:45.192Z,8.6
2019-04-21T18:37:57.388Z,8
2019-04-21T18:39:09.064Z,6.6
2019-04-21T18:40:21.793Z,6.7
2019-04-21T18:41:33.984Z,6
2019-04-21T18:42:46.189Z,5.8
2019-04-21T18:43:58.039Z,5.9
2019-04-21T18:45:10.590Z,6.3
2019-04-21T18:46:22.791Z,5.4
2019-04-21T18:47:34.991Z,5.5
2019-04-21T18:48:47.208Z,4.6
2019-04-21T18:49:59.385Z,6.1
2019-04-21T18:51:11.584Z,4.8
2019-04-21T18:52:23.779Z,4.6
2019-04-21T18:53:35.975Z,4.2
2019-04-21T18:54:48.177Z,5.1
2019-04-21T18:56:00.929Z,4.5
2019-04-21T18:57:12.585Z,5.3
2019-04-21T18:58:24.786Z,6.3
2019-04-21T18:59:36.009Z,7.1
2019-04-21T19:00:49.017Z,4.8
2019-04-21T19:02:01.401Z,4.5
2019-04-21T19:03:13.581Z,5.6
2019-04-21T19:04:25.788Z,5.3
2019-04-21T19:05:37.009Z,6.4
2019-04-21T19:06:50.165Z,6
2019-04-21T19:08:02.370Z,7.3
2019-04-21T19:09:14.568Z,5.8
2019-04-21T19:10:26.765Z,6.9
2019-04-21T19:11:38.968Z,6.1
2019-04-21T19:12:51.171Z,5.3
2019-04-21T19:14:03.037Z,5.7
2019-04-21T19:15:15.574Z,5.3
2019-04-21T19:16:27.763Z,5.5
2019-04-21T19:17:39.963Z,4.7
2019-04-21T19:18:52.165Z,5.4
2019-04-21T19:20:04.362Z,4.9
2019-04-21T19:21:16.559Z,5
2019-04-21T19:22:28.757Z,5
2019-04-21T19:23:40.970Z,6.9
2019-04-21T19:24:53.158Z,5.9
2019-04-21T19:26:05.365Z,5.3
2019-04-21T19:27:17.559Z,6.4
2019-04-21T19:28:29.761Z,6.7
2019-04-21T19:29:41.952Z,6.4
2019-04-21T19:30:54.157Z,6.1
2019-04-21T19:32:06.359Z,5.6
2019-04-21T19:34:30.751Z,6.3
2019-04-21T19:35:42.095Z,7.6
2019-04-21T19:36:55.015Z,5.8
2019-04-21T19:38:07.407Z,6.6
2019-04-21T19:39:19.545Z,7.3
2019-04-21T19:40:31.756Z,5.6
2019-04-21T19:41:43.950Z,5.9
2019-04-21T19:42:56.015Z,5.4
2019-04-21T19:44:08.357Z,6.3
2019-04-21T19:45:20.547Z,7
2019-04-21T19:46:32.742Z,6.9
2019-04-21T19:47:44.940Z,6.9
2019-04-21T19:48:57.143Z,6.8
2019-04-21T19:50:09.345Z,6.7
2019-04-21T19:51:21.538Z,7.8
2019-04-21T19:52:33.731Z,6.4
2019-04-21T19:53:45.938Z,6.9
2019-04-21T19:54:58.141Z,8
2019-04-21T19:56:10.334Z,6.2
2019-04-21T19:57:22.537Z,7.5
2019-04-21T19:58:34.733Z,8.2
2019-04-21T19:59:46.940Z,7.5
2019-04-21T20:00:59.136Z,6.1
2019-04-21T20:02:11.343Z,6.5
2019-04-21T20:03:23.528Z,6.6
2019-04-21T20:04:35.729Z,6.5
2019-04-21T20:05:47.092Z,7
2019-04-21T20:07:00.127Z,7.6
2019-04-21T20:08:12.328Z,7.3
2019-04-21T20:09:24.522Z,7.7
2019-04-21T20:10:36.725Z,7
2019-04-21T20:11:48.927Z,7.6
2019-04-21T20:13:01.113Z,7.2
2019-04-21T20:14:13.319Z,7.3
2019-04-21T20:15:25.512Z,8.2
2019-04-21T20:16:37.715Z,8.8
2019-04-21T20:17:49.919Z,7
2019-04-21T20:19:02.110Z,7.4
2019-04-21T20:20:14.318Z,8.8
2019-04-21T20:21:26.518Z,9.2
2019-04-21T20:22:38.721Z,8.3
2019-04-21T20:23:50.919Z,7.9
2019-04-21T20:25:03.111Z,8.1
2019-04-21T20:26:15.353Z,8.8
2019-04-21T20:27:27.518Z,8.2
2019-04-21T20:28:39.071Z,7.5
2019-04-21T20:29:51.924Z,9
2019-04-21T20:31:04.113Z,9.4
2019-04-21T20:32:16.304Z,8.8
2019-04-21T20:33:28.510Z,8.5
2019-04-21T20:34:40.708Z,7.9
2019-04-21T20:35:52.905Z,8.5
2019-04-21T20:37:05.109Z,7.6
2019-04-21T20:38:17.318Z,8.6
2019-04-21T20:39:29.639Z,8.8
2019-04-21T20:40:41.071Z,10.2
2019-04-21T20:41:53.901Z,9.6
2019-04-21T20:43:06.106Z,8.5
2019-04-21T20:44:18.302Z,8.6
2019-04-21T20:45:30.505Z,9.2
2019-04-21T20:46:42.070Z,8.9
2019-04-21T20:47:54.901Z,8.6
2019-04-21T20:49:07.098Z,8.8
2019-04-21T20:50:19.030Z,10.6
2019-04-21T20:51:31.493Z,8.4
2019-04-21T20:52:43.708Z,9
2019-04-21T20:53:55.888Z,10
2019-04-21T20:55:08.091Z,9
2019-04-21T20:56:20.301Z,9.5
2019-04-21T20:57:32.497Z,8.6
2019-04-21T20:58:44.696Z,8.5
2019-04-21T20:59:56.895Z,8.5
2019-04-21T21:01:09.088Z,8.7
2019-04-21T21:02:21.298Z,9.3
2019-04-21T21:03:33.484Z,9.9
2019-04-21T21:04:45.682Z,10.1
2019-04-21T21:05:57.927Z,8.5
2019-04-21T21:07:10.084Z,9.4
2019-04-21T21:08:22.287Z,8.8
2019-04-21T21:09:34.048Z,8.3
2019-04-21T21:10:46.681Z,8.1
2019-04-21T21:11:58.884Z,8.9
2019-04-21T21:13:11.086Z,9
2019-04-21T21:14:23.284Z,10.2
2019-04-21T21:15:35.504Z,11.7
2019-04-21T21:16:47.066Z,11.1
2019-04-21T21:17:59.875Z,12
2019-04-21T21:19:12.087Z,10.6
2019-04-21T21:20:24.272Z,10.2
2019-04-21T21:21:36.048Z,11.7
2019-04-21T21:22:48.674Z,10.2
2019-04-21T21:24:00.874Z,10.7
2019-04-21T21:25:13.087Z,10.4
2019-04-21T21:26:25.273Z,11.5
2019-04-21T21:27:37.477Z,10
2019-04-21T21:28:49.682Z,11
2019-04-21T21:30:01.868Z,11.7
2019-04-21T21:31:14.064Z,10.4
2019-04-21T21:32:26.264Z,12.1
2019-04-21T21:33:38.463Z,11.9
2019-04-21T21:34:50.738Z,12.6
2019-04-21T21:36:02.860Z,11.3
2019-04-21T21:37:15.065Z,12.8
2019-04-21T21:38:27.264Z,12
2019-04-21T21:39:39.937Z,12.3
2019-04-21T21:40:51.664Z,11.2
2019-04-21T21:42:03.862Z,13.1
2019-04-21T21:43:16.063Z,12.6
2019-04-21T21:44:28.266Z,13.1
2019-04-21T21:45:40.449Z,14.2
2019-04-21T21:46:52.653Z,12.9
2019-04-21T21:48:04.854Z,12.8
2019-04-21T21:49:17.052Z,14.4
2019-04-21T21:50:29.255Z,14.3
2019-04-21T21:51:41.453Z,15.1
2019-04-21T21:52:53.652Z,17.6
2019-04-21T21:54:05.856Z,14.4
2019-04-21T21:55:18.054Z,18.4
2019-04-21T21:56:30.250Z,16.6
2019-04-21T21:57:42.454Z,15.9
2019-04-21T21:58:54.647Z,16.1
2019-04-21T22:00:06.858Z,15
2019-04-21T22:01:19.004Z,14.5
2019-04-21T22:02:31.236Z,16
2019-04-21T22:03:43.443Z,14.5
2019-04-21T22:04:55.640Z,14.4
2019-04-21T22:06:07.847Z,15.2
2019-04-21T22:07:20.004Z,15.7
2019-04-21T22:08:32.237Z,15.7
2019-04-21T22:09:44.437Z,15.8
2019-04-21T22:10:56.651Z,15.6
2019-04-21T22:12:08.843Z,14.4
2019-04-21T22:13:21.043Z,16.1
2019-04-21T22:14:33.242Z,13.6
2019-04-21T22:15:45.044Z,13.3
2019-04-21T22:16:57.641Z,13.3
2019-04-21T22:18:09.844Z,14.2
2019-04-21T22:19:22.031Z,13.7
2019-04-21T22:20:34.235Z,12.1
2019-04-21T22:21:46.425Z,12.8
2019-04-21T22:22:58.630Z,13.7
2019-04-21T22:24:10.831Z,14
2019-04-21T22:25:23.273Z,12
2019-04-21T22:26:35.230Z,12.1
2019-04-21T22:27:47.427Z,12.4
2019-04-21T22:28:59.629Z,11.8
2019-04-21T22:30:11.830Z,12.2
2019-04-21T22:31:24.027Z,12.5
2019-04-21T22:32:36.217Z,12
2019-04-21T22:33:48.420Z,12.6
2019-04-21T22:35:00.621Z,10.7
2019-04-21T22:36:12.820Z,11.4
2019-04-21T22:37:25.015Z,11.2
2019-04-21T22:38:37.021Z,11.6
2019-04-21T22:39:49.419Z,12
2019-04-21T22:41:01.621Z,11.4
2019-04-21T22:42:13.820Z,10.1
2019-04-21T22:43:26.018Z,12.7
2019-04-21T22:44:38.214Z,10.6
2019-04-21T22:45:50.419Z,10.1
2019-04-21T22:47:02.061Z,10.2
2019-04-21T22:48:14.811Z,10.2
2019-04-21T22:49:27.007Z,11.2
2019-04-21T22:50:39.201Z,9.8
2019-04-21T22:51:51.407Z,9.4
2019-04-21T22:53:03.607Z,9.1
2019-04-21T22:54:15.806Z,9.3
2019-04-21T22:55:28.001Z,9.9
2019-04-21T22:56:40.212Z,8.6
2019-04-21T22:57:52.040Z,9.6
2019-04-21T22:59:04.611Z,10.7
2019-04-21T23:00:16.803Z,9.3
2019-04-21T23:01:29.008Z,10.1
2019-04-21T23:02:41.208Z,8.5
2019-04-21T23:03:53.405Z,9.7
2019-04-21T23:05:05.599Z,9.8
2019-04-21T23:06:18.172Z,9.7
2019-04-21T23:07:29.997Z,9
2019-04-21T23:08:42.020Z,9.1
2019-04-21T23:09:54.397Z,9.1
2019-04-21T23:11:06.597Z,8.5
2019-04-21T23:12:18.814Z,9.9
2019-04-21T23:13:30.099Z,9.9
2019-04-21T23:14:43.197Z,9.8
2019-04-21T23:15:55.396Z,9
2019-04-21T23:17:07.595Z,8.2
2019-04-21T23:18:19.791Z,7.8
2019-04-21T23:19:31.098Z,8.2
2019-04-21T23:20:44.183Z,7.7
2019-04-21T23:21:56.384Z,9.9
2019-04-21T23:23:08.583Z,8.3
2019-04-21T23:24:20.786Z,8.4
2019-04-21T23:25:32.985Z,9.8
2019-04-21T23:26:45.183Z,9.8
2019-04-21T23:27:57.384Z,9
2019-04-21T23:29:09.585Z,10.6
2019-04-21T23:30:21.779Z,9.7
2019-04-21T23:31:33.985Z,9.1
2019-04-21T23:32:46.271Z,13
2019-04-21T23:33:58.385Z,9.5
2019-04-21T23:35:10.578Z,10
2019-04-21T23:36:22.771Z,10.4
2019-04-21T23:37:34.973Z,10.9
2019-04-21T23:38:47.177Z,10.7
2019-04-21T23:39:59.368Z,10.7
2019-04-21T23:41:11.577Z,10.9
2019-04-21T23:42:23.767Z,10.4
2019-04-21T23:43:35.973Z,11.1
2019-04-21T23:44:48.169Z,8.9
2019-04-21T23:46:00.366Z,11.2
2019-04-21T23:47:12.573Z,10.8
2019-04-21T23:48:24.772Z,9.9
2019-04-21T23:49:36.966Z,10
2019-04-21T23:50:49.164Z,9.9
2019-04-21T23:52:01.355Z,10.6
2019-04-21T23:53:13.564Z,9.8
2019-04-21T23:54:25.763Z,10
2019-04-21T23:55:37.963Z,10.1
2019-04-21T23:56:50.161Z,11.5
2019-04-21T23:58:02.362Z,10.4
2019-04-21T23:59:14.055Z,11.1
